Time;durP1;ratioP1;P1;durP2;ratioP2;P2;SDS_P1;SDS_P2;PMS_P1;PMS_P2;Temp;Humidity;BMP_temperature;BMP_pressure;BME280_temperature;BME280_humidity;BME280_pressure;Samples;Min_cycle;Max_cycle;Signal;HPM_P1;HPM_P2
2022/08/04 00:01:16;;;;;;;1111.50;999.90;;;26.60;99.90;;;;;;5089995;28;20466;-83
2022/08/04 00:03:50;;;;;;;1121.97;999.90;;;26.60;99.90;;;;;;5089570;28;20929;-83
2022/08/04 00:06:24;;;;;;;1109.63;999.90;;;26.60;99.90;;;;;;5090125;28;20460;-83
2022/08/04 00:08:56;;;;;;;1129.33;999.90;;;26.60;99.90;;;;;;5094073;28;20446;-84
2022/08/04 00:11:25;;;;;;;1124.33;999.90;;;26.60;99.90;;;;;;5089472;28;20467;-84
2022/08/04 00:13:57;;;;;;;1123.70;999.90;;;26.60;99.90;;;;;;5090931;28;20483;-84
2022/08/04 00:16:29;;;;;;;1112.90;999.90;;;26.50;99.90;;;;;;5090463;28;21207;-84
2022/08/04 00:19:01;;;;;;;1124.67;999.90;;;26.50;99.90;;;;;;5083709;28;20880;-83
2022/08/04 00:21:29;;;;;;;1124.10;999.90;;;26.50;99.90;;;;;;5091284;28;20464;-83
2022/08/04 00:23:56;;;;;;;1116.33;999.90;;;26.50;99.90;;;;;;5093712;28;20446;-83
2022/08/04 00:26:23;;;;;;;1120.33;999.90;;;26.50;99.90;;;;;;5088388;28;20458;-83
2022/08/04 00:28:51;;;;;;;1137.20;999.90;;;26.40;99.90;;;;;;5093583;28;20574;-83
2022/08/04 00:31:19;;;;;;;1120.63;999.90;;;26.40;99.90;;;;;;5091206;28;20463;-82
2022/08/04 00:33:47;;;;;;;1121.27;999.90;;;26.40;99.90;;;;;;5085060;28;20503;-83
2022/08/04 00:36:14;;;;;;;1129.43;999.90;;;26.40;99.90;;;;;;5081618;28;20464;-85
2022/08/04 00:38:42;;;;;;;1121.53;999.90;;;26.40;99.90;;;;;;5090918;28;20447;-85
2022/08/04 00:41:19;;;;;;;1138.63;999.90;;;26.40;99.90;;;;;;5087995;28;20482;-85
2022/08/04 00:43:59;;;;;;;1117.97;999.90;;;26.30;99.90;;;;;;5091014;28;20458;-85
2022/08/04 00:46:38;;;;;;;1115.57;999.90;;;26.30;99.90;;;;;;5079788;28;20471;-85
2022/08/04 00:49:31;;;;;;;1111.60;999.90;;;26.30;99.90;;;;;;5085053;28;20464;-85
2022/08/04 00:52:09;;;;;;;1108.23;999.90;;;26.30;99.90;;;;;;5089321;28;20463;-85
2022/08/04 00:54:55;;;;;;;1125.93;999.90;;;26.30;99.90;;;;;;5092781;28;20476;-85
2022/08/04 00:57:36;;;;;;;1102.90;999.90;;;26.30;99.90;;;;;;5081421;28;21966;-84
2022/08/04 01:00:07;;;;;;;1115.43;999.90;;;26.20;99.90;;;;;;5093194;28;20492;-85
2022/08/04 01:02:45;;;;;;;1129.07;999.90;;;26.20;99.90;;;;;;5092214;28;20957;-85
2022/08/04 01:05:21;;;;;;;1124.50;999.90;;;26.20;99.90;;;;;;5088634;28;20443;-85
2022/08/04 01:08:16;;;;;;;1106.33;999.90;;;26.20;99.90;;;;;;5092054;28;20463;-85
2022/08/04 01:10:58;;;;;;;1102.17;999.90;;;26.20;99.90;;;;;;5092189;28;20443;-85
2022/08/04 01:13:52;;;;;;;1119.83;999.90;;;26.10;99.90;;;;;;5084564;28;21029;-85
2022/08/04 01:16:24;;;;;;;1102.60;999.90;;;26.10;99.90;;;;;;5076574;28;20468;-85
2022/08/04 01:18:58;;;;;;;1113.33;999.90;;;26.10;99.90;;;;;;5089609;28;20506;-85
2022/08/04 01:22:01;;;;;;;1115.63;999.90;;;26.10;99.90;;;;;;5092067;28;20940;-86
2022/08/04 01:25:02;;;;;;;1104.30;999.90;;;26.10;99.90;;;;;;5092241;28;20446;-85
2022/08/04 01:27:46;;;;;;;1106.83;999.90;;;26.00;99.90;;;;;;5088448;28;20437;-85
2022/08/04 01:30:14;;;;;;;1097.67;999.90;;;26.00;99.90;;;;;;5088581;28;20778;-85
2022/08/04 01:32:52;;;;;;;1096.40;999.23;;;26.00;99.90;;;;;;5089017;28;20460;-84
2022/08/04 01:35:24;;;;;;;1122.47;999.90;;;26.00;99.90;;;;;;5082670;28;20490;-85
2022/08/04 01:38:01;;;;;;;1113.13;999.90;;;26.00;99.90;;;;;;5090194;28;21029;-84
2022/08/04 01:40:28;;;;;;;1108.73;999.90;;;25.90;99.90;;;;;;5092573;28;20440;-83
2022/08/04 01:42:58;;;;;;;1112.13;999.90;;;25.90;99.90;;;;;;5074168;28;20449;-84
2022/08/04 01:45:27;;;;;;;1114.37;999.90;;;25.90;99.90;;;;;;5089752;28;20458;-85
2022/08/04 01:47:56;;;;;;;1108.10;999.90;;;25.90;99.90;;;;;;5083260;28;20455;-84
2022/08/04 01:50:26;;;;;;;1100.33;999.90;;;25.90;99.90;;;;;;5074558;28;20458;-85
2022/08/04 01:52:55;;;;;;;1107.77;999.90;;;25.90;99.90;;;;;;5092612;28;20428;-85
2022/08/04 01:55:22;;;;;;;1100.40;999.90;;;25.90;99.90;;;;;;5085428;28;20480;-85
2022/08/04 01:57:52;;;;;;;1118.20;999.90;;;25.80;99.90;;;;;;5087447;28;20456;-82
2022/08/04 02:00:22;;;;;;;1102.50;999.90;;;25.80;99.90;;;;;;5089418;28;20456;-85
2022/08/04 02:02:51;;;;;;;1110.60;999.90;;;25.90;99.90;;;;;;5091130;28;20427;-84
2022/08/04 02:05:21;;;;;;;1113.83;999.90;;;25.80;99.90;;;;;;5080062;28;20464;-80
2022/08/04 02:08:04;;;;;;;1104.33;999.90;;;25.80;99.90;;;;;;5090527;28;20440;-81
2022/08/04 02:10:44;;;;;;;1096.30;998.90;;;25.80;99.90;;;;;;5079801;28;20459;-81
2022/08/04 02:13:18;;;;;;;1109.30;999.90;;;25.70;99.90;;;;;;5078728;28;20460;-81
2022/08/04 02:15:57;;;;;;;1101.73;999.90;;;25.70;99.90;;;;;;5086247;28;20558;-81
2022/08/04 02:18:31;;;;;;;1100.60;999.90;;;25.70;99.90;;;;;;5085615;28;20816;-80
2022/08/04 02:21:00;;;;;;;1100.53;999.90;;;25.70;99.90;;;;;;5081158;28;20451;-81
2022/08/04 02:23:31;;;;;;;1108.07;999.90;;;25.70;99.90;;;;;;5084591;28;20493;-82
2022/08/04 02:26:00;;;;;;;1095.47;999.90;;;25.70;99.90;;;;;;5088792;28;20838;-81
2022/08/04 02:28:33;;;;;;;1100.07;999.90;;;25.60;99.90;;;;;;5090688;28;20446;-82
2022/08/04 02:31:11;;;;;;;1098.23;999.90;;;25.60;99.90;;;;;;5083658;28;20449;-83
2022/08/04 02:33:42;;;;;;;1102.87;999.90;;;25.60;99.90;;;;;;5080613;28;20484;-84
2022/08/04 02:36:13;;;;;;;1095.07;999.90;;;25.60;99.90;;;;;;5081227;28;20459;-83
2022/08/04 02:38:56;;;;;;;1100.43;999.90;;;25.50;99.90;;;;;;5090750;28;20644;-84
2022/08/04 02:41:26;;;;;;;1106.63;999.90;;;25.50;99.90;;;;;;5089406;28;20965;-84
2022/08/04 02:43:57;;;;;;;1083.20;996.43;;;25.50;99.90;;;;;;5088346;28;20513;-83
2022/08/04 02:46:25;;;;;;;1097.47;999.90;;;25.50;99.90;;;;;;5086003;28;20830;-83
2022/08/04 02:48:54;;;;;;;1105.70;999.90;;;25.50;99.90;;;;;;5083984;28;20771;-83
2022/08/04 02:51:24;;;;;;;1109.97;999.90;;;25.50;99.90;;;;;;5085222;28;20458;-83
2022/08/04 02:53:54;;;;;;;1088.27;998.93;;;25.50;99.90;;;;;;5082949;28;20486;-82
2022/08/04 02:56:22;;;;;;;1104.77;999.90;;;25.40;99.90;;;;;;5090308;28;20456;-82
2022/08/04 02:59:00;;;;;;;1102.53;999.90;;;25.40;99.90;;;;;;5084720;28;20460;-82
2022/08/04 03:01:27;;;;;;;1087.67;998.93;;;25.40;99.90;;;;;;5084090;28;20830;-82
2022/08/04 03:04:12;;;;;;;1091.40;999.90;;;25.40;99.90;;;;;;5079591;28;20458;-83
2022/08/04 03:07:09;;;;;;;1086.17;999.00;;;25.40;99.90;;;;;;5088857;28;20809;-83
2022/08/04 03:09:59;;;;;;;1103.73;999.90;;;25.30;99.90;;;;;;5086757;28;20460;-82
2022/08/04 03:12:52;;;;;;;1095.00;999.90;;;25.30;99.90;;;;;;5071016;28;20452;-83
2022/08/04 03:15:59;;;;;;;1091.83;999.90;;;25.30;99.90;;;;;;5080480;28;20483;-82
2022/08/04 03:19:02;;;;;;;1083.23;998.00;;;25.30;99.90;;;;;;5083160;28;20535;-83
2022/08/04 03:22:00;;;;;;;1087.53;999.47;;;25.30;99.90;;;;;;5030137;28;20435;-81
2022/08/04 03:25:06;;;;;;;1090.93;999.90;;;25.30;99.90;;;;;;5092772;28;20460;-83
2022/08/04 03:27:58;;;;;;;1081.13;996.93;;;25.20;99.90;;;;;;5086095;28;20463;-82
2022/08/04 03:30:35;;;;;;;1086.43;998.30;;;25.20;99.90;;;;;;5084231;28;20457;-82
2022/08/04 03:33:37;;;;;;;1082.73;997.63;;;25.20;99.90;;;;;;5087917;28;20467;-82
2022/08/04 03:36:34;;;;;;;1084.77;997.90;;;25.20;99.90;;;;;;5092906;28;20948;-83
2022/08/04 03:39:23;;;;;;;1079.03;995.07;;;25.20;99.90;;;;;;5091743;28;20455;-83
2022/08/04 03:42:20;;;;;;;1082.77;996.97;;;25.10;99.90;;;;;;5083609;28;20464;-83
2022/08/04 03:45:22;;;;;;;1070.17;987.53;;;25.10;99.90;;;;;;5083523;28;20455;-83
2022/08/04 03:48:23;;;;;;;1079.77;995.43;;;25.10;99.90;;;;;;5057320;28;20458;-82
2022/08/04 03:54:43;;;;;;;1064.33;981.23;;;25.10;99.90;;;;;;5086725;28;21037;-83
2022/08/04 03:57:36;;;;;;;1079.23;994.53;;;25.10;99.90;;;;;;5061053;28;20949;-81
2022/08/04 04:00:07;;;;;;;1087.97;998.43;;;25.00;99.90;;;;;;5084261;28;20471;-82
2022/08/04 04:02:57;;;;;;;1074.97;991.07;;;25.00;99.90;;;;;;5092195;28;20456;-83
2022/08/04 04:06:02;;;;;;;1088.63;998.60;;;25.00;99.90;;;;;;5090011;28;20455;-82
2022/08/04 04:08:50;;;;;;;1084.77;998.13;;;25.00;99.90;;;;;;5083296;28;20460;-89
2022/08/04 04:11:50;;;;;;;1073.10;989.13;;;25.00;99.90;;;;;;5079263;28;20463;-89
2022/08/04 04:14:37;;;;;;;1077.33;992.83;;;25.00;99.90;;;;;;5091472;28;20479;-88
2022/08/04 04:17:16;;;;;;;1070.50;986.17;;;25.00;99.90;;;;;;5090965;28;20474;-89
2022/08/04 04:20:04;;;;;;;1064.63;980.23;;;25.00;99.90;;;;;;5086166;28;20574;-87
2022/08/04 04:22:52;;;;;;;1083.83;997.00;;;24.90;99.90;;;;;;5093468;28;20477;-86
2022/08/04 04:25:28;;;;;;;1072.27;987.07;;;24.90;99.90;;;;;;5086799;28;20462;-86
2022/08/04 04:28:21;;;;;;;1067.83;982.97;;;24.90;99.90;;;;;;5091231;28;20454;-88
2022/08/04 04:31:03;;;;;;;1077.13;991.73;;;24.90;99.90;;;;;;5089247;28;20467;-88
2022/08/04 04:33:43;;;;;;;1070.07;984.87;;;24.90;99.90;;;;;;5085857;28;20459;-88
2022/08/04 04:36:19;;;;;;;1069.40;984.23;;;24.90;99.90;;;;;;5083815;28;20479;-88
2022/08/04 04:39:01;;;;;;;1071.43;985.53;;;24.80;99.90;;;;;;5093723;28;20859;-90
2022/08/04 04:41:40;;;;;;;1079.80;994.00;;;24.80;99.90;;;;;;5093587;28;20451;-88
2022/08/04 04:44:37;;;;;;;1091.33;999.00;;;24.80;99.90;;;;;;5089495;28;20536;-88
2022/08/04 04:47:14;;;;;;;1072.87;986.77;;;24.80;99.90;;;;;;5092243;28;20456;-88
2022/08/04 04:49:54;;;;;;;1082.33;995.57;;;24.80;99.90;;;;;;5081968;28;20455;-88
2022/08/04 04:52:28;;;;;;;1078.30;992.03;;;24.80;99.90;;;;;;5092789;28;20443;-87
2022/08/04 04:55:03;;;;;;;1071.37;985.07;;;24.80;99.90;;;;;;5084712;28;20475;-89
2022/08/04 04:57:35;;;;;;;1085.03;997.63;;;24.80;99.90;;;;;;5093786;28;20466;-91
2022/08/04 05:00:07;;;;;;;1071.50;985.77;;;24.80;99.90;;;;;;5094422;28;20455;-89
2022/08/04 05:02:51;;;;;;;1067.67;981.47;;;24.80;99.90;;;;;;5091510;28;20451;-90
2022/08/04 05:06:00;;;;;;;1070.47;984.07;;;24.80;99.90;;;;;;5089612;28;20954;-90
2022/08/04 05:08:51;;;;;;;1071.03;984.63;;;24.80;99.90;;;;;;5081925;28;20494;-90
2022/08/04 05:11:56;;;;;;;1069.37;983.27;;;24.70;99.90;;;;;;5081532;28;20461;-89
2022/08/04 05:14:28;;;;;;;1065.87;979.63;;;24.70;99.90;;;;;;5087073;28;20992;-90
2022/08/04 05:17:02;;;;;;;1058.30;972.37;;;24.70;99.90;;;;;;5092265;28;20466;-89
2022/08/04 05:19:42;;;;;;;1067.97;981.97;;;24.70;99.90;;;;;;5076694;28;20484;-90
2022/08/04 05:22:14;;;;;;;1078.83;992.77;;;24.70;99.90;;;;;;5092029;28;20953;-91
2022/08/04 05:24:44;;;;;;;1073.47;987.37;;;24.70;99.90;;;;;;5080465;28;20459;-91
2022/08/04 05:27:15;;;;;;;1061.80;976.10;;;24.70;99.90;;;;;;5094162;28;20938;-92
2022/08/04 05:29:50;;;;;;;1057.20;971.70;;;24.70;99.90;;;;;;5091552;28;20463;-89
2022/08/04 05:32:22;;;;;;;1071.53;985.17;;;24.70;99.90;;;;;;5085335;28;20463;-91
2022/08/04 05:34:55;;;;;;;1059.60;974.10;;;24.70;99.90;;;;;;5084980;28;20484;-89
2022/08/04 05:37:23;;;;;;;1074.40;988.00;;;24.70;99.90;;;;;;5088529;28;20451;-89
2022/08/04 05:39:55;;;;;;;1077.67;990.97;;;24.70;99.90;;;;;;5092186;28;20456;-88
2022/08/04 05:42:23;;;;;;;1058.13;972.07;;;24.80;99.90;;;;;;5090528;28;20459;-90
2022/08/04 05:44:50;;;;;;;1068.00;980.97;;;24.80;99.90;;;;;;5083461;28;20458;-87
2022/08/04 05:47:20;;;;;;;1081.10;993.53;;;25.00;99.90;;;;;;5091772;28;20992;-88
2022/08/04 05:49:47;;;;;;;1075.13;986.47;;;25.20;99.90;;;;;;5074944;28;20457;-92
2022/08/04 05:52:14;;;;;;;1077.73;987.40;;;25.30;99.90;;;;;;5084025;28;20447;-92
2022/08/04 05:54:42;;;;;;;1091.40;998.57;;;25.40;99.90;;;;;;5087201;28;20479;-85
2022/08/04 05:57:10;;;;;;;1088.07;996.03;;;25.50;99.90;;;;;;5092085;28;20440;-85
2022/08/04 05:59:39;;;;;;;1082.53;992.93;;;25.60;99.90;;;;;;5079336;28;20445;-85
2022/08/04 06:02:09;;;;;;;1090.67;997.83;;;25.70;99.90;;;;;;5088777;28;20866;-85
2022/08/04 06:04:40;;;;;;;1102.23;999.90;;;25.90;99.90;;;;;;5089063;28;20815;-84
2022/08/04 06:07:07;;;;;;;1099.43;999.90;;;26.00;99.90;;;;;;5084381;28;20439;-84
2022/08/04 06:09:34;;;;;;;1122.50;999.90;;;26.10;99.90;;;;;;5092465;28;20434;-84
2022/08/04 06:12:06;;;;;;;1104.77;999.90;;;26.20;99.90;;;;;;5090589;28;20470;-84
2022/08/04 06:14:38;;;;;;;1108.20;999.90;;;26.40;99.90;;;;;;5080348;28;20459;-85
2022/08/04 06:17:07;;;;;;;1107.93;999.90;;;26.50;99.90;;;;;;5086844;28;20823;-84
2022/08/04 06:19:39;;;;;;;1121.23;999.90;;;26.60;99.90;;;;;;5079837;28;20486;-83
2022/08/04 06:22:08;;;;;;;1121.80;999.90;;;26.70;99.90;;;;;;5071363;28;20807;-83
2022/08/04 06:24:38;;;;;;;1131.80;999.90;;;26.90;99.90;;;;;;5084541;28;20451;-83
2022/08/04 06:27:06;;;;;;;1135.87;999.90;;;27.00;99.90;;;;;;5086038;28;20466;-83
2022/08/04 06:29:36;;;;;;;1137.43;999.90;;;27.10;99.90;;;;;;5087704;28;20478;-83
2022/08/04 06:32:23;;;;;;;1143.87;999.90;;;27.20;99.90;;;;;;5089428;28;20463;-83
2022/08/04 06:34:53;;;;;;;1136.57;999.90;;;27.30;99.90;;;;;;5082328;28;20475;-85
2022/08/04 06:37:21;;;;;;;1146.60;999.90;;;27.40;99.90;;;;;;5088967;28;20478;-85
2022/08/04 06:39:49;;;;;;;1138.27;999.90;;;27.50;99.90;;;;;;5082836;28;20456;-85
2022/08/04 06:42:17;;;;;;;1144.10;999.90;;;27.60;99.90;;;;;;5082728;28;20459;-84
2022/08/04 06:44:46;;;;;;;1152.90;999.90;;;27.60;99.90;;;;;;5086384;28;20930;-85
2022/08/04 06:47:13;;;;;;;1160.47;999.90;;;27.70;99.90;;;;;;5083024;28;20455;-84
2022/08/04 06:49:41;;;;;;;1154.87;999.90;;;27.80;99.90;;;;;;5082785;28;20470;-84
2022/08/04 06:52:10;;;;;;;1160.40;999.90;;;27.90;99.90;;;;;;5084334;28;20459;-84
2022/08/04 06:54:36;;;;;;;1159.93;999.90;;;28.00;99.90;;;;;;5089364;28;20950;-83
2022/08/04 06:57:03;;;;;;;1155.70;999.90;;;28.10;99.90;;;;;;5086930;28;20468;-85
2022/08/04 06:59:30;;;;;;;1161.40;999.90;;;28.20;99.60;;;;;;5087127;28;20459;-85
2022/08/04 07:01:59;;;;;;;1180.30;999.90;;;28.30;99.30;;;;;;5076910;28;20461;-85
2022/08/04 07:04:26;;;;;;;1179.13;999.90;;;28.40;98.90;;;;;;5086734;28;20463;-84
2022/08/04 07:06:53;;;;;;;1168.83;999.90;;;28.60;98.60;;;;;;5090939;28;20436;-84
2022/08/04 07:09:21;;;;;;;1188.63;999.90;;;28.70;98.20;;;;;;5091036;28;20452;-84
2022/08/04 07:11:49;;;;;;;1193.80;999.90;;;28.80;97.80;;;;;;5086623;28;20543;-84
2022/08/04 07:14:18;;;;;;;1192.23;999.90;;;28.90;97.50;;;;;;5084380;28;20456;-85
2022/08/04 07:16:45;;;;;;;1192.70;999.90;;;29.00;97.20;;;;;;5081434;28;20988;-84
2022/08/04 07:19:12;;;;;;;1183.43;999.90;;;29.10;97.00;;;;;;5078841;28;20495;-84
2022/08/04 07:21:39;;;;;;;1191.57;999.90;;;29.20;96.70;;;;;;5088759;28;20448;-83
2022/08/04 07:24:06;;;;;;;1198.40;999.90;;;29.20;96.40;;;;;;5089653;28;20482;-83
2022/08/04 07:26:35;;;;;;;1204.87;999.90;;;29.30;96.10;;;;;;5088083;28;20456;-84
2022/08/04 07:29:02;;;;;;;1214.00;999.90;;;29.40;95.80;;;;;;5084455;28;20549;-83
2022/08/04 07:31:29;;;;;;;1200.57;999.90;;;29.50;95.60;;;;;;5088835;28;20455;-83
2022/08/04 07:33:57;;;;;;;1213.33;999.90;;;29.60;95.40;;;;;;5081482;28;20977;-84
2022/08/04 07:36:24;;;;;;;1214.47;999.90;;;29.70;95.20;;;;;;5089343;28;20985;-84
2022/08/04 07:38:50;;;;;;;1215.07;999.90;;;29.70;95.00;;;;;;5090677;28;20442;-84
2022/08/04 07:41:20;;;;;;;1223.20;999.90;;;29.90;94.80;;;;;;5084480;28;20455;-82
2022/08/04 07:43:49;;;;;;;1226.87;999.90;;;29.90;94.60;;;;;;5080115;28;20962;-82
2022/08/04 07:46:16;;;;;;;1210.70;999.90;;;30.00;94.40;;;;;;5087966;28;20456;-81
2022/08/04 07:48:43;;;;;;;1223.17;999.90;;;30.00;94.20;;;;;;5082662;28;20467;-83
2022/08/04 07:51:10;;;;;;;1232.77;999.90;;;30.10;94.00;;;;;;5079455;28;20460;-83
2022/08/04 07:53:37;;;;;;;1214.60;999.90;;;30.20;93.80;;;;;;5087826;28;20459;-81
2022/08/04 07:56:04;;;;;;;1225.90;999.90;;;30.30;93.50;;;;;;5088783;28;20490;-82
2022/08/04 07:58:31;;;;;;;1224.33;999.90;;;30.30;93.40;;;;;;5084694;28;20985;-83
2022/08/04 08:01:00;;;;;;;1220.40;999.90;;;30.30;93.30;;;;;;5077644;28;20456;-80
2022/08/04 08:03:27;;;;;;;1233.30;999.90;;;30.40;93.20;;;;;;5088927;28;20456;-82
2022/08/04 08:05:54;;;;;;;1219.87;999.90;;;30.30;93.10;;;;;;5092406;28;20470;-86
2022/08/04 08:08:21;;;;;;;1222.27;999.90;;;30.30;93.00;;;;;;5093395;28;20451;-86
2022/08/04 08:10:48;;;;;;;1234.10;999.90;;;30.30;93.00;;;;;;5075894;28;20918;-79
2022/08/04 08:13:15;;;;;;;1227.03;999.90;;;30.30;92.90;;;;;;5087364;28;20459;-83
2022/08/04 08:15:45;;;;;;;1223.37;999.90;;;30.40;92.80;;;;;;5091873;28;20475;-83
2022/08/04 08:18:14;;;;;;;1235.27;999.90;;;30.40;92.70;;;;;;5090507;28;20456;-82
2022/08/04 08:20:44;;;;;;;1215.33;999.90;;;30.40;92.60;;;;;;5093315;28;20456;-81
2022/08/04 08:23:11;;;;;;;1234.03;999.90;;;30.50;92.60;;;;;;5091466;28;20436;-80
2022/08/04 08:25:38;;;;;;;1236.23;999.90;;;30.60;92.50;;;;;;5087002;28;20458;-82
2022/08/04 08:28:06;;;;;;;1230.70;999.90;;;30.60;92.40;;;;;;5091526;28;20553;-83
2022/08/04 08:30:33;;;;;;;1233.47;999.90;;;30.60;92.30;;;;;;5091385;28;20472;-83
2022/08/04 08:33:03;;;;;;;1230.57;999.90;;;30.70;90.90;;;;;;5084794;28;20957;-80
2022/08/04 08:35:36;;;;;;;1248.83;999.90;;;30.70;91.60;;;;;;5090204;28;20479;-82
2022/08/04 08:38:06;;;;;;;1249.10;999.90;;;30.70;91.30;;;;;;5087727;28;20464;-82
2022/08/04 08:40:43;;;;;;;1258.50;999.90;;;30.80;91.40;;;;;;5092546;28;20444;-82
2022/08/04 08:43:35;;;;;;;1235.63;999.90;;;31.10;90.50;;;;;;5084002;28;20945;-81
2022/08/04 08:46:31;;;;;;;1253.57;999.90;;;31.10;90.70;;;;;;5087949;28;20957;-82
2022/08/04 08:49:30;;;;;;;1255.53;999.90;;;31.20;90.70;;;;;;5085189;28;20452;-81
2022/08/04 08:52:16;;;;;;;1247.00;999.90;;;31.10;90.70;;;;;;5088159;28;20456;-80
2022/08/04 08:55:03;;;;;;;1241.87;999.90;;;31.20;90.60;;;;;;5088372;28;20460;-80
2022/08/04 08:57:42;;;;;;;1250.03;999.90;;;31.20;90.70;;;;;;5090060;28;20475;-81
2022/08/04 09:00:15;;;;;;;1254.57;999.90;;;31.20;90.60;;;;;;5091726;28;20980;-81
2022/08/04 09:03:38;;;;;;;1255.77;999.90;;;31.20;90.50;;;;;;5091273;28;20918;-83
2022/08/04 09:06:32;;;;;;;1257.43;999.90;;;31.20;90.60;;;;;;5090676;28;20941;-83
2022/08/04 09:09:44;;;;;;;1243.13;999.90;;;31.20;90.50;;;;;;5093122;28;20458;-81
2022/08/04 09:12:18;;;;;;;1254.77;999.90;;;31.20;90.30;;;;;;5029631;28;20450;-83
2022/08/04 09:14:50;;;;;;;1260.10;999.90;;;31.20;90.40;;;;;;5033775;28;20964;-80
2022/08/04 09:17:23;;;;;;;1252.30;999.90;;;31.20;90.40;;;;;;5059142;28;20476;-81
2022/08/04 09:19:57;;;;;;;1264.87;999.90;;;31.20;90.40;;;;;;5090517;28;20819;-82
2022/08/04 09:22:33;;;;;;;1248.80;999.90;;;31.20;90.10;;;;;;5089788;28;20455;-82
2022/08/04 09:25:07;;;;;;;1252.37;999.90;;;31.20;90.20;;;;;;5090680;28;20825;-80
2022/08/04 09:27:44;;;;;;;1254.37;999.90;;;31.20;90.20;;;;;;5089553;28;20455;-82
2022/08/04 09:30:13;;;;;;;1247.40;999.90;;;31.20;90.20;;;;;;5084006;28;20485;-80
2022/08/04 09:32:47;;;;;;;1250.67;999.90;;;31.10;90.10;;;;;;5085803;28;20451;-82
2022/08/04 09:35:23;;;;;;;1254.00;999.90;;;31.10;90.10;;;;;;5080966;28;20947;-81
2022/08/04 09:38:01;;;;;;;1248.73;999.90;;;31.10;89.90;;;;;;5084713;28;20504;-83
2022/08/04 09:40:34;;;;;;;1245.60;999.90;;;31.00;90.00;;;;;;5090346;28;20462;-81
2022/08/04 09:43:08;;;;;;;1245.63;999.90;;;31.00;90.00;;;;;;5091585;28;20438;-83
2022/08/04 09:45:48;;;;;;;1241.33;999.90;;;31.00;90.00;;;;;;5082662;28;20791;-81
2022/08/04 09:48:24;;;;;;;1250.37;999.90;;;31.00;89.90;;;;;;5090720;28;20456;-82
2022/08/04 09:50:57;;;;;;;1237.43;999.90;;;31.00;90.00;;;;;;5087792;28;20964;-82
2022/08/04 09:53:36;;;;;;;1240.80;999.90;;;30.90;89.80;;;;;;5087932;28;20452;-81
2022/08/04 09:56:10;;;;;;;1246.97;999.90;;;31.00;89.30;;;;;;5087714;28;20553;-80
2022/08/04 09:58:49;;;;;;;1243.80;999.90;;;30.90;89.10;;;;;;5087835;28;20813;-81
2022/08/04 10:01:19;;;;;;;1235.53;999.90;;;31.00;89.10;;;;;;5088261;28;20470;-84
2022/08/04 10:03:50;;;;;;;1239.03;999.90;;;31.00;89.00;;;;;;5085868;28;20447;-80
2022/08/04 10:06:35;;;;;;;1248.43;999.90;;;31.00;89.00;;;;;;5084918;28;20447;-80
2022/08/04 10:09:13;;;;;;;1253.47;999.90;;;30.90;88.50;;;;;;5088859;28;20463;-79
2022/08/04 10:12:03;;;;;;;1249.23;999.90;;;30.90;88.70;;;;;;5086319;28;20553;-79
2022/08/04 10:14:51;;;;;;;1241.63;999.90;;;30.90;88.80;;;;;;5083527;28;20826;-81
2022/08/04 10:17:39;;;;;;;1236.33;999.90;;;30.90;88.90;;;;;;5089493;28;20521;-80
2022/08/04 10:20:14;;;;;;;1233.33;999.90;;;30.90;89.00;;;;;;5070603;28;20484;-83
2022/08/04 10:22:47;;;;;;;1233.93;999.90;;;30.90;88.60;;;;;;5075197;28;20473;-80
2022/08/04 10:25:26;;;;;;;1239.20;999.90;;;30.90;88.80;;;;;;5082801;28;20949;-81
2022/08/04 10:27:58;;;;;;;1238.10;999.90;;;30.90;88.40;;;;;;5087246;28;20455;-80
2022/08/04 10:30:27;;;;;;;1236.37;999.90;;;30.90;87.90;;;;;;5086518;28;20455;-82
2022/08/04 10:33:02;;;;;;;1234.33;999.90;;;30.90;88.20;;;;;;5087727;28;20455;-80
2022/08/04 10:35:35;;;;;;;1247.30;999.90;;;30.90;87.40;;;;;;5085881;28;20459;-82
2022/08/04 10:38:19;;;;;;;1238.97;999.90;;;30.90;87.00;;;;;;5082529;28;20502;-83
2022/08/04 10:40:50;;;;;;;1238.13;999.90;;;30.90;87.40;;;;;;5085744;28;20454;-81
2022/08/04 10:43:29;;;;;;;1241.70;999.90;;;30.90;87.10;;;;;;5083434;28;20460;-79
2022/08/04 10:46:01;;;;;;;1241.47;999.90;;;30.90;87.10;;;;;;5083862;28;20833;-80
2022/08/04 10:48:40;;;;;;;1233.30;999.90;;;30.90;86.00;;;;;;5081379;28;20460;-81
2022/08/04 10:51:18;;;;;;;1238.60;999.90;;;30.80;86.20;;;;;;5075025;28;20830;-82
2022/08/04 10:53:50;;;;;;;1254.60;999.90;;;30.90;86.70;;;;;;5090801;28;20475;-82
2022/08/04 10:56:23;;;;;;;1233.53;999.90;;;30.90;85.90;;;;;;5085101;28;20483;-82
2022/08/04 10:58:58;;;;;;;1237.27;999.90;;;30.90;86.30;;;;;;5086444;28;20451;-82
2022/08/04 11:01:29;;;;;;;1235.90;999.90;;;30.80;86.10;;;;;;5088250;28;21041;-82
2022/08/04 11:04:00;;;;;;;1234.73;999.90;;;30.90;85.20;;;;;;5085824;28;21049;-81
2022/08/04 11:06:28;;;;;;;1239.47;999.90;;;30.80;85.60;;;;;;5087754;28;20451;-83
2022/08/04 11:08:56;;;;;;;1258.57;999.90;;;30.80;81.00;;;;;;5085882;28;20451;-82
2022/08/04 11:11:30;;;;;;;1242.90;999.90;;;31.50;72.60;;;;;;5088497;28;20459;-82
2022/08/04 11:14:03;;;;;;;1250.37;999.90;;;31.60;74.60;;;;;;5089439;28;20459;-83
2022/08/04 11:16:35;;;;;;;1251.77;999.90;;;31.60;76.40;;;;;;5089697;28;20471;-84
2022/08/04 11:19:25;;;;;;;1263.50;999.90;;;31.50;75.60;;;;;;5083336;28;20491;-84
2022/08/04 11:21:56;;;;;;;1252.40;999.90;;;31.40;76.00;;;;;;5088409;28;20506;-84
2022/08/04 11:24:27;;;;;;;1243.70;999.90;;;31.30;76.40;;;;;;5079142;28;21015;-82
2022/08/04 11:26:59;;;;;;;1252.97;999.90;;;31.20;76.70;;;;;;5088612;28;20464;-82
2022/08/04 11:29:35;;;;;;;1237.67;999.90;;;31.20;78.00;;;;;;5088472;28;20550;-84
2022/08/04 11:32:05;;;;;;;1247.47;999.90;;;31.20;78.00;;;;;;5082140;28;20427;-83
2022/08/04 11:34:34;;;;;;;1237.50;999.90;;;31.10;78.50;;;;;;5086895;28;20463;-84
2022/08/04 11:37:09;;;;;;;1231.17;999.90;;;31.10;78.90;;;;;;5090181;28;20478;-82
2022/08/04 11:39:42;;;;;;;1244.63;999.90;;;31.10;79.30;;;;;;5093321;28;20446;-83
2022/08/04 11:42:18;;;;;;;1241.23;999.90;;;31.10;79.50;;;;;;5074284;28;20927;-81
2022/08/04 11:44:51;;;;;;;1232.43;999.90;;;31.00;79.70;;;;;;5085786;28;20984;-85
2022/08/04 11:47:29;;;;;;;1239.93;999.90;;;31.30;78.30;;;;;;5093289;28;20451;-85
2022/08/04 11:50:03;;;;;;;1240.93;999.90;;;31.30;78.70;;;;;;5084307;28;20456;-85
2022/08/04 11:52:32;;;;;;;1250.37;999.90;;;31.30;78.70;;;;;;5091694;28;20902;-84
2022/08/04 11:55:02;;;;;;;1241.33;999.90;;;31.60;76.60;;;;;;5092635;28;20468;-81
2022/08/04 11:57:29;;;;;;;1251.53;999.90;;;31.60;76.90;;;;;;5089694;28;20467;-80
2022/08/04 11:59:58;;;;;;;1258.90;999.90;;;31.60;78.10;;;;;;5091009;28;20546;-82
2022/08/04 12:03:03;;;;;;;1248.20;999.90;;;31.50;77.60;;;;;;5092262;28;20470;-80
2022/08/04 12:05:33;;;;;;;1250.30;999.90;;;31.40;78.10;;;;;;5083777;28;20455;-82
2022/08/04 12:08:11;;;;;;;1237.60;999.90;;;31.40;78.40;;;;;;5088484;28;20447;-82
2022/08/04 12:10:47;;;;;;;1235.83;999.90;;;31.30;78.30;;;;;;5089870;28;20463;-82
2022/08/04 12:13:24;;;;;;;1226.37;999.90;;;31.30;78.70;;;;;;5091397;28;20816;-82
2022/08/04 12:16:01;;;;;;;1247.80;999.90;;;31.20;78.70;;;;;;5090901;28;20462;-81
2022/08/04 12:18:34;;;;;;;1224.80;999.90;;;31.20;78.90;;;;;;5091056;28;20532;-83
2022/08/04 12:21:07;;;;;;;1225.87;999.90;;;31.10;78.90;;;;;;5091015;28;20471;-81
2022/08/04 12:23:38;;;;;;;1247.77;999.90;;;31.10;79.00;;;;;;5085982;28;20495;-82
2022/08/04 12:26:08;;;;;;;1255.50;999.90;;;31.10;79.40;;;;;;5090302;28;20478;-84
2022/08/04 12:28:38;;;;;;;1238.97;999.90;;;31.10;79.50;;;;;;5083656;28;20460;-82
2022/08/04 12:31:17;;;;;;;1234.73;999.90;;;31.10;79.60;;;;;;5089482;28;20459;-82
2022/08/04 12:33:51;;;;;;;1234.90;999.90;;;31.10;79.80;;;;;;5084389;28;20456;-82
2022/08/04 12:36:23;;;;;;;1237.23;999.90;;;31.10;79.90;;;;;;5086606;28;20458;-80
2022/08/04 12:38:58;;;;;;;1246.17;999.90;;;31.10;80.30;;;;;;5085213;28;20438;-81
2022/08/04 12:41:32;;;;;;;1240.13;999.90;;;31.10;80.50;;;;;;5083799;28;20452;-81
2022/08/04 12:44:06;;;;;;;1243.30;999.90;;;31.10;80.70;;;;;;5090962;28;20455;-82